Main page
METAR-TAF:

METAR-TAF

Airports :

Recife/Guararapes–Gilberto Freyre International Airport

Recife, Pernambuco, Brazil

latitude: 08-08S, longitude: 034-55W, elevation: 19 m

Current weather observation

The report was made 27 minutes ago, at 23:00 UTC
Wind 8 kt from the Southeast
Temperature 27°C
Humidity 70%
Pressure 1015 hPa
Visibility 10 km or more
Scattered clouds at a height of 2300 ft

METAR: SBRF 212300Z 14008KT 9999 SCT023 27/21 Q1015

Time: 20:27 (23:27 UTC)

Forecast

The report was made 8 hours and 27 minutes ago, at 15:00 UTC
Forecast valid from 21 at 18 UTC to 22 at 18 UTC
Wind 11 kt from the Southeast
Visibility: 8000 m
Scattered clouds at a height of 2200 ft

TAF: SBRF 211500Z 2118/2218 13011KT 8000 SCT022 TN26/2208Z TX30/2215Z RMK PEA

Weather observations and forecasts of more than 4000 airports (METAR and TAF reports).

The available stations are represented by yellow and red dots on the map.

Hover mouse over dot to see the name of the station.

Then click to see weather observations and forecasts.

To change the map : click on the green buttons with a black cross to zoom in, on the green button with a dash to zoom out, or on the green arrows for adjacent maps.


METAR-TAF: